createdAt,value
2023-05-07T04:46:08.347Z,1.00
2023-05-07T08:07:55.817Z,12.50
2023-05-07T09:52:56.471Z,7.00
2023-05-07T09:55:23.497Z,6.50
2023-05-07T09:57:54.458Z,7.75
2023-05-07T10:00:24.873Z,5.50
2023-05-07T10:02:53.590Z,4.50
2023-05-07T10:05:23.594Z,5.00
2023-05-07T10:07:50.753Z,7.00
2023-05-07T10:10:18.424Z,8.50
2023-05-07T10:12:45.204Z,7.50
2023-05-07T10:15:12.783Z,6.25
2023-05-07T10:17:40.363Z,5.75
2023-05-07T10:20:08.623Z,6.75
2023-05-07T10:22:46.887Z,7.00
2023-05-07T10:25:21.903Z,5.75
2023-05-07T10:27:49.782Z,7.00
2023-05-07T10:30:33.093Z,7.00
2023-05-07T10:33:07.005Z,4.00
2023-05-07T10:35:42.429Z,7.00
2023-05-07T10:38:09.350Z,6.50
2023-05-07T10:40:35.945Z,5.50
2023-05-07T10:43:03.672Z,6.75
2023-05-07T10:45:30.499Z,6.00
2023-05-07T10:48:27.352Z,7.00
2023-05-07T10:51:14.922Z,8.00
2023-05-07T10:53:41.421Z,4.50
2023-05-07T10:56:20.519Z,5.50
2023-05-07T10:58:47.034Z,7.75
2023-05-07T11:01:15.556Z,8.33
2023-05-07T11:04:08.543Z,8.50
2023-05-07T11:06:35.736Z,7.25
2023-05-07T11:09:02.429Z,8.00
2023-05-07T11:11:59.158Z,9.00
2023-05-07T11:14:57.979Z,5.25
2023-05-07T11:17:25.616Z,5.00
2023-05-07T11:19:52.931Z,4.00
2023-05-07T11:22:31.922Z,6.75
2023-05-07T11:25:01.599Z,6.00
2023-05-07T11:27:28.417Z,5.00
2023-05-07T11:29:54.907Z,1.75
2023-05-07T11:32:32.004Z,9.00
2023-05-07T11:34:59.601Z,8.50
2023-05-07T11:37:27.894Z,8.00
2023-05-07T11:40:07.784Z,4.50
2023-05-07T11:42:35.560Z,6.25
2023-05-07T11:45:02.356Z,5.25
2023-05-07T11:47:31.733Z,4.75
2023-05-07T11:49:58.645Z,7.00
2023-05-07T11:52:25.982Z,6.50
2023-05-07T11:54:53.896Z,5.50
2023-05-07T11:57:21.120Z,6.75
2023-05-07T11:59:49.232Z,5.00
2023-05-07T12:02:16.506Z,4.00
2023-05-07T12:04:43.067Z,0.00
2023-05-07T12:07:16.554Z,20.75
2023-05-07T12:09:44.111Z,7.50
2023-05-07T12:12:11.294Z,5.50
2023-05-07T12:14:44.454Z,5.25
2023-05-07T12:17:12.128Z,7.00
2023-05-07T12:19:39.553Z,6.25
2023-05-07T12:22:06.769Z,5.50
2023-05-07T12:24:46.113Z,6.00
2023-05-07T12:27:12.653Z,6.00
2023-05-07T12:29:41.069Z,5.75
2023-05-07T12:32:08.171Z,5.25
2023-05-07T12:34:34.790Z,4.00
2023-05-07T12:37:03.050Z,6.00
2023-05-07T12:39:29.490Z,4.00
2023-05-07T12:41:57.139Z,4.00
2023-05-07T12:44:24.824Z,5.50
2023-05-07T12:46:52.000Z,5.00
2023-05-07T12:49:23.744Z,4.00
2023-05-07T12:51:51.711Z,4.00
2023-05-07T12:54:34.101Z,5.00
2023-05-07T12:57:08.039Z,6.00
2023-05-07T12:59:35.555Z,5.25
2023-05-07T13:02:02.428Z,5.25
2023-05-07T13:04:29.344Z,3.25
2023-05-07T13:06:55.870Z,5.50
2023-05-07T13:09:22.409Z,5.00
2023-05-07T13:11:49.022Z,5.00
2023-05-07T13:14:16.149Z,5.50
2023-05-07T13:16:43.136Z,5.00
2023-05-07T13:19:09.807Z,3.00
2023-05-07T13:21:36.357Z,2.75
2023-05-07T13:24:02.779Z,3.00
2023-05-07T13:26:31.298Z,5.00
2023-05-07T13:28:58.146Z,5.00
2023-05-07T13:31:25.503Z,3.00
2023-05-07T13:33:52.103Z,5.00
2023-05-07T13:36:18.958Z,4.25
2023-05-07T13:38:45.498Z,5.00
2023-05-07T13:41:13.955Z,6.00
2023-05-07T13:43:40.451Z,4.00
2023-05-07T13:46:07.042Z,4.00
2023-05-07T13:48:33.650Z,3.25
2023-05-07T13:51:00.112Z,4.75
2023-05-07T13:53:26.641Z,3.75
2023-05-07T13:55:53.680Z,4.25
2023-05-07T13:58:20.411Z,6.00
2023-05-07T14:00:47.004Z,4.75
2023-05-07T14:03:13.897Z,4.00
2023-05-07T14:05:40.798Z,5.00
2023-05-07T14:08:08.938Z,4.75
2023-05-07T14:10:36.162Z,4.50
2023-05-07T14:13:03.187Z,4.00
2023-05-07T14:15:29.848Z,3.25
2023-05-07T14:17:56.480Z,3.00
2023-05-07T14:20:23.117Z,4.00
2023-05-07T14:22:49.603Z,1.25
2023-05-07T14:25:16.340Z,5.00
2023-05-07T14:27:43.098Z,3.25
2023-05-07T14:30:09.905Z,3.75
2023-05-07T14:32:37.063Z,6.25
2023-05-07T14:35:03.806Z,7.75
2023-05-07T14:37:30.646Z,10.00
2023-05-07T14:39:57.274Z,4.00
2023-05-07T14:42:23.729Z,6.50
2023-05-07T14:44:50.375Z,4.00
2023-05-07T14:47:19.670Z,3.25
2023-05-07T14:49:46.609Z,3.25
2023-05-07T14:52:13.169Z,5.00
2023-05-07T14:54:39.758Z,4.00
2023-05-07T14:57:06.962Z,5.00
2023-05-07T14:59:33.528Z,3.25
2023-05-07T15:02:00.808Z,5.00
2023-05-07T15:04:28.054Z,3.25
2023-05-07T15:06:57.546Z,4.00
2023-05-07T15:09:24.048Z,4.00
2023-05-07T15:11:50.633Z,3.25
2023-05-07T15:14:17.135Z,6.00
2023-05-07T15:16:43.684Z,3.00
2023-05-07T15:19:10.322Z,4.50
2023-05-07T15:21:39.827Z,5.00
2023-05-07T15:24:06.419Z,5.00
2023-05-07T15:26:32.911Z,6.25
2023-05-07T15:29:02.114Z,4.00
2023-05-07T15:31:28.826Z,2.75
2023-05-07T15:33:55.561Z,4.50
2023-05-07T15:36:22.130Z,5.00
2023-05-07T15:38:48.898Z,4.50
2023-05-07T15:41:15.392Z,4.00
2023-05-07T15:43:46.911Z,4.00
2023-05-07T15:46:13.786Z,4.25
2023-05-07T15:48:41.401Z,4.75
2023-05-07T15:51:10.334Z,3.25
2023-05-07T15:53:37.934Z,4.50
2023-05-07T15:56:04.442Z,6.00
2023-05-07T15:58:31.015Z,3.00
2023-05-07T16:00:57.493Z,4.00
2023-05-07T16:03:24.596Z,5.00
2023-05-07T16:05:51.490Z,4.00
2023-05-07T16:08:17.979Z,6.75
2023-05-07T16:10:44.590Z,4.75
2023-05-07T16:13:11.762Z,5.50
2023-05-07T16:15:38.527Z,2.00
2023-05-07T16:18:05.442Z,4.00
2023-05-07T16:20:32.253Z,4.00
2023-05-07T16:22:59.019Z,4.50
2023-05-07T16:25:25.534Z,4.25
2023-05-07T16:27:53.629Z,3.25
2023-05-07T16:30:20.146Z,4.50
2023-05-07T16:32:46.668Z,5.00
2023-05-07T16:35:13.416Z,3.50
2023-05-07T16:37:40.642Z,3.75
2023-05-07T16:40:09.192Z,3.25
2023-05-07T16:42:36.309Z,5.25
2023-05-07T16:45:04.695Z,4.00
2023-05-07T16:47:31.789Z,4.00
2023-05-07T16:50:00.548Z,4.25
2023-05-07T16:52:30.135Z,4.00
2023-05-07T16:55:01.080Z,4.00
2023-05-07T16:57:28.682Z,5.25
2023-05-07T16:59:58.951Z,4.50
2023-05-07T17:02:25.481Z,4.00
2023-05-07T17:04:52.183Z,8.00
2023-05-07T17:07:18.810Z,5.25
2023-05-07T17:09:45.288Z,5.25
2023-05-07T17:12:11.710Z,4.50
2023-05-07T17:14:38.426Z,8.75
2023-05-07T17:17:04.969Z,4.00
2023-05-07T17:19:31.771Z,7.00
2023-05-07T17:21:58.800Z,7.25
2023-05-07T17:24:25.450Z,8.00
2023-05-07T17:26:52.010Z,9.50
2023-05-07T17:29:20.163Z,8.75
2023-05-07T17:31:46.856Z,8.00
2023-05-07T17:34:14.558Z,8.75
2023-05-07T17:36:41.294Z,7.00
2023-05-07T17:39:07.770Z,5.00
2023-05-07T17:41:40.363Z,8.00
2023-05-07T17:44:06.848Z,11.00
2023-05-07T17:46:33.615Z,9.25
2023-05-07T17:49:00.120Z,8.50
2023-05-07T17:51:28.884Z,8.75
2023-05-07T17:53:57.195Z,9.50
2023-05-07T17:56:23.709Z,11.00
2023-05-07T18:01:19.584Z,6.50
2023-05-07T18:03:46.264Z,8.00
2023-05-07T18:06:18.241Z,9.50
2023-05-07T18:08:45.396Z,8.50
2023-05-07T18:11:12.070Z,8.75
2023-05-07T18:13:38.788Z,8.50
2023-05-07T18:16:05.817Z,13.00
2023-05-07T18:18:32.731Z,9.75
2023-05-07T18:20:59.412Z,9.75
2023-05-07T18:23:26.053Z,10.50
2023-05-07T18:25:52.617Z,10.75
2023-05-07T18:28:19.089Z,8.25
2023-05-07T18:30:45.846Z,7.00
2023-05-07T18:33:13.520Z,7.00
2023-05-07T18:35:40.121Z,7.00
2023-05-07T18:38:06.649Z,5.25
2023-05-07T18:40:33.145Z,7.00
2023-05-07T18:43:00.861Z,7.00
2023-05-07T18:45:28.083Z,4.75
2023-05-07T18:47:54.710Z,5.50
2023-05-07T18:50:21.320Z,7.00
2023-05-07T18:52:48.075Z,8.00
2023-05-07T18:55:14.688Z,7.50
2023-05-07T18:57:41.322Z,14.25
2023-05-07T19:00:09.452Z,7.00
2023-05-07T19:02:36.239Z,8.75
2023-05-07T19:05:02.788Z,11.00
2023-05-07T19:07:29.409Z,13.00
2023-05-07T19:10:04.911Z,16.75
2023-05-07T19:12:32.637Z,16.67
2023-05-07T19:14:59.090Z,18.33
2023-05-07T19:17:25.619Z,19.67
2023-05-07T19:19:52.178Z,31.00
2023-05-07T19:22:18.789Z,33.75
2023-05-07T19:24:45.358Z,29.25
2023-05-07T19:27:11.852Z,29.33
2023-05-07T19:29:38.253Z,28.67
2023-05-07T19:32:05.353Z,30.50
2023-05-07T19:34:31.837Z,26.00
2023-05-07T19:36:58.376Z,29.00
2023-05-07T19:39:24.983Z,25.00
2023-05-07T19:41:51.488Z,29.50
2023-05-07T19:44:18.355Z,21.67
2023-05-07T19:46:46.321Z,25.00
2023-05-07T19:49:13.249Z,19.00
2023-05-07T19:51:39.957Z,28.25
2023-05-07T19:54:06.725Z,28.75
2023-05-07T19:56:33.373Z,39.25
2023-05-07T19:58:59.903Z,40.25
2023-05-07T20:01:27.914Z,36.75
2023-05-07T20:03:54.783Z,32.25
2023-05-07T20:06:23.422Z,39.75
2023-05-07T20:08:50.764Z,32.75
2023-05-07T20:11:17.396Z,26.00
2023-05-07T20:13:44.150Z,27.50
2023-05-07T20:16:10.770Z,24.50
2023-05-07T20:18:37.325Z,41.75
2023-05-07T20:21:05.134Z,40.75
2023-05-07T20:23:31.715Z,16.00
2023-05-07T20:25:58.761Z,25.50
2023-05-07T20:28:26.212Z,30.75
2023-05-07T20:30:52.705Z,34.25
2023-05-07T20:33:19.262Z,39.75
2023-05-07T20:35:46.097Z,48.25
2023-05-07T20:38:13.430Z,47.50
2023-05-07T20:40:40.541Z,36.00
2023-05-07T20:43:07.074Z,34.50
2023-05-07T20:45:33.706Z,32.25
2023-05-07T20:48:03.468Z,31.00
2023-05-07T20:50:30.252Z,28.00
2023-05-07T20:52:56.794Z,24.25
2023-05-07T20:55:23.283Z,26.25
2023-05-07T20:57:49.939Z,22.50
2023-05-07T21:00:17.559Z,22.50
2023-05-07T21:02:44.725Z,20.50
2023-05-07T21:05:11.631Z,15.75
2023-05-07T21:07:38.471Z,8.25
2023-05-07T21:10:05.172Z,26.25
2023-05-07T21:12:31.635Z,26.75
2023-05-07T21:14:58.229Z,20.00
2023-05-07T21:17:24.897Z,43.25
2023-05-07T21:19:51.393Z,40.25
2023-05-07T21:22:17.947Z,41.25
2023-05-07T21:24:47.524Z,29.50
2023-05-07T21:27:14.191Z,36.50
2023-05-07T21:29:40.893Z,42.00
2023-05-07T21:32:07.483Z,41.75
2023-05-07T21:34:34.382Z,37.75
2023-05-07T21:37:01.172Z,33.00
2023-05-07T21:39:27.585Z,35.00
2023-05-07T21:41:54.032Z,32.00
2023-05-07T21:44:20.518Z,23.00
2023-05-07T21:46:47.139Z,38.00
2023-05-07T21:49:13.730Z,42.50
2023-05-07T21:51:40.314Z,43.00
2023-05-07T21:54:07.179Z,41.25
2023-05-07T21:56:33.685Z,40.75
2023-05-07T21:59:00.554Z,37.50
2023-05-07T22:01:27.128Z,25.75
2023-05-07T22:03:54.575Z,30.50
2023-05-07T22:06:22.897Z,25.25
2023-05-07T22:08:49.846Z,29.50
2023-05-07T22:11:16.476Z,29.25
2023-05-07T22:13:43.157Z,31.50
2023-05-07T22:16:10.287Z,36.50
2023-05-07T22:18:36.914Z,36.00
2023-05-07T22:21:03.488Z,33.50
2023-05-07T22:23:30.281Z,35.00
2023-05-07T22:25:56.944Z,35.00
2023-05-07T22:28:23.747Z,32.00
2023-05-07T22:30:51.286Z,37.75
2023-05-07T22:33:17.838Z,35.75
2023-05-07T22:35:44.442Z,41.25
2023-05-07T22:38:11.114Z,37.75
2023-05-07T22:40:37.694Z,42.25
2023-05-07T22:43:04.228Z,41.25
2023-05-07T22:45:30.834Z,36.75
2023-05-07T22:47:57.299Z,34.50
2023-05-07T22:50:24.145Z,41.75
2023-05-07T22:52:50.897Z,42.75
2023-05-07T22:55:17.578Z,39.00
2023-05-07T22:57:44.090Z,35.00
2023-05-07T23:00:11.227Z,38.50
2023-05-07T23:02:37.986Z,38.25
2023-05-07T23:05:06.841Z,29.75
2023-05-07T23:07:33.271Z,34.75
2023-05-07T23:09:59.996Z,27.50
2023-05-07T23:12:29.544Z,42.25
2023-05-07T23:14:56.007Z,48.25
2023-05-07T23:17:22.824Z,53.25
2023-05-07T23:19:49.686Z,48.50
2023-05-07T23:22:16.584Z,46.25
2023-05-07T23:24:43.229Z,50.00
2023-05-07T23:27:09.702Z,44.75
2023-05-07T23:29:36.495Z,45.50
2023-05-07T23:32:03.017Z,45.75
2023-05-07T23:34:29.518Z,49.25
2023-05-07T23:36:56.138Z,44.00
2023-05-07T23:39:22.623Z,43.75
2023-05-07T23:41:49.133Z,45.75
2023-05-07T23:44:18.581Z,44.25
2023-05-07T23:46:45.244Z,43.50
2023-05-07T23:49:12.352Z,46.50
2023-05-07T23:51:38.961Z,43.50
2023-05-07T23:54:06.674Z,42.00
2023-05-07T23:56:33.840Z,44.00
2023-05-07T23:59:00.483Z,44.00
